createdAt,value
2024-04-19T00:02:26.000Z,41.80
2024-04-19T00:05:27.495Z,44.90
2024-04-19T00:08:29.194Z,41.90
2024-04-19T00:14:32.201Z,47.30
2024-04-19T00:17:33.642Z,36.90
2024-04-19T00:20:35.095Z,44.60
2024-04-19T00:23:37.243Z,40.30
2024-04-19T00:26:38.765Z,38.90
2024-04-19T00:29:40.293Z,38.20
2024-04-19T00:32:41.829Z,36.80
2024-04-19T00:38:45.556Z,41.90
2024-04-19T00:41:47.022Z,39.80
2024-04-19T00:44:48.483Z,40.40
2024-04-19T00:47:50.056Z,37.80
2024-04-19T00:53:55.617Z,37.90
2024-04-19T00:56:57.222Z,35.20
2024-04-19T00:59:58.816Z,38.70
2024-04-19T01:03:00.312Z,38.40
2024-04-19T01:06:02.210Z,44.40
2024-04-19T01:09:04.607Z,38.80
2024-04-19T01:12:07.117Z,40.50
2024-04-19T01:15:24.320Z,41.40
2024-04-19T01:18:25.929Z,40.00
2024-04-19T01:24:49.675Z,38.20
2024-04-19T01:27:51.157Z,39.70
2024-04-19T01:30:52.661Z,39.90
2024-04-19T01:33:54.114Z,42.40
2024-04-19T01:36:55.722Z,43.00
2024-04-19T01:42:58.661Z,47.90
2024-04-19T01:46:00.242Z,46.10
2024-04-19T01:49:01.824Z,44.50
2024-04-19T01:55:05.059Z,48.90
2024-04-19T01:58:06.582Z,51.70
2024-04-19T02:01:08.430Z,56.50
2024-04-19T02:04:10.052Z,54.50
2024-04-19T02:07:11.465Z,54.50
2024-04-19T02:10:12.997Z,56.90
2024-04-19T02:13:14.425Z,55.10
2024-04-19T02:16:15.797Z,53.70
2024-04-19T02:19:17.253Z,52.20
2024-04-19T02:22:18.742Z,56.20
2024-04-19T02:25:20.472Z,54.90
2024-04-19T02:28:22.028Z,56.80
2024-04-19T02:34:24.903Z,53.00
2024-04-19T02:37:26.278Z,55.90
2024-04-19T02:40:27.750Z,53.10
2024-04-19T02:43:29.432Z,54.10
2024-04-19T02:49:32.292Z,57.40
2024-04-19T02:52:33.680Z,60.40
2024-04-19T02:55:35.082Z,59.30
2024-04-19T02:58:36.601Z,57.90
2024-04-19T03:01:37.963Z,60.50
2024-04-19T03:04:39.626Z,57.40
2024-04-19T03:10:42.659Z,63.10
2024-04-19T03:13:44.019Z,65.60
2024-04-19T03:16:45.396Z,69.00
2024-04-19T03:19:46.742Z,69.00
2024-04-19T03:22:48.194Z,73.90
2024-04-19T03:25:49.542Z,71.90
2024-04-19T03:28:51.016Z,74.80
2024-04-19T03:31:52.381Z,75.00
2024-04-19T03:34:54.198Z,73.30
2024-04-19T03:37:55.578Z,81.60
2024-04-19T03:40:57.272Z,81.40
2024-04-19T03:46:59.933Z,81.10
2024-04-19T03:50:01.397Z,79.30
2024-04-19T03:53:03.971Z,72.80
2024-04-19T03:56:05.499Z,73.60
2024-04-19T03:59:06.871Z,71.60
2024-04-19T04:02:29.242Z,78.50
2024-04-19T04:05:51.996Z,73.50
2024-04-19T04:09:12.453Z,73.30
2024-04-19T04:12:32.983Z,65.70
2024-04-19T04:15:53.553Z,66.30
2024-04-19T04:19:14.687Z,62.90
2024-04-19T04:22:35.832Z,66.30
2024-04-19T04:25:56.374Z,70.00
2024-04-19T04:29:16.847Z,68.30
2024-04-19T04:32:37.274Z,73.80
2024-04-19T04:36:00.710Z,68.80
2024-04-19T04:39:21.575Z,72.30
2024-04-19T04:42:41.830Z,66.00
2024-04-19T04:46:02.564Z,67.40
2024-04-19T04:49:22.910Z,65.00
2024-04-19T04:52:43.447Z,65.50
2024-04-19T04:56:04.260Z,64.20
2024-04-19T04:59:24.549Z,59.90
2024-04-19T05:02:45.047Z,59.90
2024-04-19T05:06:05.686Z,55.10
2024-04-19T05:09:25.978Z,49.00
2024-04-19T05:12:46.133Z,48.10
2024-04-19T05:16:06.977Z,43.20
2024-04-19T05:19:27.537Z,40.20
2024-04-19T05:22:48.415Z,39.10
2024-04-19T05:26:08.794Z,35.00
2024-04-19T05:29:29.478Z,40.70
2024-04-19T05:32:49.743Z,33.60
2024-04-19T05:38:52.577Z,33.20
2024-04-19T05:41:53.963Z,30.20
2024-04-19T05:44:55.377Z,30.20
2024-04-19T05:54:01.327Z,28.20
2024-04-19T05:57:02.923Z,28.50
2024-04-19T06:03:06.009Z,29.00
2024-04-19T06:09:08.845Z,28.10
2024-04-19T06:12:10.282Z,26.80
2024-04-19T06:15:11.981Z,25.30
2024-04-19T06:18:13.436Z,25.10
2024-04-19T06:24:16.977Z,25.30
2024-04-19T06:27:18.484Z,25.10
2024-04-19T06:33:21.333Z,22.70
2024-04-19T06:39:24.819Z,22.90
2024-04-19T06:42:26.410Z,24.20
2024-04-19T06:48:29.254Z,28.30
2024-04-19T06:54:33.014Z,25.60
2024-04-19T07:00:47.874Z,24.30
2024-04-19T07:04:00.960Z,28.20
2024-04-19T07:07:02.526Z,27.60
2024-04-19T07:13:06.677Z,21.10
2024-04-19T07:16:08.171Z,16.70
2024-04-19T07:19:09.634Z,13.70
2024-04-19T07:25:12.382Z,15.60
2024-04-19T07:34:16.797Z,15.60
2024-04-19T07:40:19.727Z,14.80
2024-04-19T07:43:21.716Z,12.10
2024-04-19T07:46:23.228Z,13.70
2024-04-19T07:49:26.556Z,12.40
2024-04-19T07:52:28.070Z,14.00
2024-04-19T07:55:29.507Z,10.90
2024-04-19T07:58:30.957Z,12.30
2024-04-19T08:01:32.352Z,14.90
2024-04-19T08:04:34.008Z,11.20
2024-04-19T08:07:40.166Z,12.10
2024-04-19T08:10:42.778Z,13.50
2024-04-19T08:13:44.524Z,13.80
2024-04-19T08:16:46.077Z,14.10
2024-04-19T08:19:48.147Z,13.80
2024-04-19T08:22:49.605Z,10.20
2024-04-19T08:25:51.032Z,15.00
2024-04-19T08:28:52.596Z,10.30
2024-04-19T08:31:56.543Z,10.70
2024-04-19T08:34:58.140Z,8.90
2024-04-19T08:37:59.525Z,12.60
2024-04-19T08:41:04.469Z,10.30
2024-04-19T08:44:08.899Z,7.60
2024-04-19T08:47:11.423Z,9.90
2024-04-19T08:50:15.313Z,7.60
2024-04-19T08:53:19.102Z,9.40
2024-04-19T08:56:21.376Z,12.20
2024-04-19T08:59:22.932Z,12.20
2024-04-19T09:02:24.451Z,10.70
2024-04-19T09:05:25.932Z,10.80
2024-04-19T09:08:27.402Z,8.50
2024-04-19T09:11:28.903Z,10.40
2024-04-19T09:14:30.568Z,13.10
2024-04-19T09:17:32.234Z,9.50
2024-04-19T09:20:33.768Z,13.30
2024-04-19T09:23:35.144Z,16.20
2024-04-19T09:29:38.026Z,14.80
2024-04-19T09:32:39.700Z,11.30
2024-04-19T09:35:41.207Z,14.20
2024-04-19T09:38:43.249Z,13.20
2024-04-19T09:41:48.759Z,9.60
2024-04-19T09:44:53.590Z,10.80
2024-04-19T09:47:55.878Z,12.50
2024-04-19T09:50:58.705Z,11.60
2024-04-19T09:54:04.831Z,11.70
2024-04-19T09:57:06.403Z,11.60
2024-04-19T10:00:09.376Z,9.80
2024-04-19T10:03:12.526Z,5.30
2024-04-19T10:06:14.393Z,8.70
2024-04-19T10:09:24.646Z,8.60
2024-04-19T10:12:26.199Z,7.90
2024-04-19T10:15:27.768Z,10.40
2024-04-19T10:18:29.263Z,11.10
2024-04-19T10:21:34.131Z,9.80
2024-04-19T10:24:35.499Z,10.60
2024-04-19T10:27:38.552Z,7.60
2024-04-19T10:30:40.001Z,7.00
2024-04-19T10:33:43.010Z,11.40
2024-04-19T10:36:45.930Z,6.00
2024-04-19T10:39:47.849Z,7.70
2024-04-19T10:42:49.326Z,6.70
2024-04-19T10:45:51.029Z,11.50
2024-04-19T10:48:53.763Z,15.30
2024-04-19T10:51:55.435Z,6.60
2024-04-19T10:54:58.542Z,9.10
2024-04-19T10:58:00.074Z,10.60
2024-04-19T11:01:02.114Z,12.00
2024-04-19T11:04:03.731Z,10.30
2024-04-19T11:07:05.200Z,6.10
2024-04-19T11:10:07.212Z,7.60
2024-04-19T11:13:09.839Z,8.10
2024-04-19T11:16:11.476Z,9.00
2024-04-19T11:19:13.112Z,8.30
2024-04-19T11:22:15.950Z,11.60
2024-04-19T11:25:17.561Z,9.10
2024-04-19T11:28:19.716Z,9.40
2024-04-19T11:31:21.344Z,9.60
2024-04-19T11:34:28.068Z,8.80
2024-04-19T11:37:29.482Z,9.00
2024-04-19T11:40:31.178Z,7.30
2024-04-19T11:43:32.703Z,11.30
2024-04-19T11:46:34.532Z,7.80
2024-04-19T11:49:36.055Z,8.00
2024-04-19T11:52:39.677Z,10.10
2024-04-19T11:55:41.583Z,7.60
2024-04-19T11:58:44.408Z,8.70
2024-04-19T12:01:46.651Z,6.50
2024-04-19T12:04:48.268Z,5.30
2024-04-19T12:07:50.072Z,8.20
2024-04-19T12:10:51.634Z,6.20
2024-04-19T12:14:39.237Z,10.80
2024-04-19T12:20:35.577Z,12.00
2024-04-19T12:23:44.364Z,8.80
2024-04-19T12:26:46.070Z,7.90
2024-04-19T12:29:47.734Z,9.30
2024-04-19T12:32:49.272Z,10.20
2024-04-19T12:35:50.971Z,6.80
2024-04-19T12:38:52.464Z,8.20
2024-04-19T12:41:54.680Z,14.90
2024-04-19T12:44:56.047Z,8.10
2024-04-19T12:48:05.584Z,9.80
2024-04-19T12:51:07.340Z,9.00
2024-04-19T12:54:08.914Z,7.00
2024-04-19T12:57:10.393Z,9.30
2024-04-19T13:00:12.481Z,7.10
2024-04-19T13:03:13.942Z,7.40
2024-04-19T13:06:15.426Z,9.60
2024-04-19T13:09:16.801Z,7.10
2024-04-19T13:12:18.292Z,9.00
2024-04-19T13:15:19.789Z,5.50
2024-04-19T13:18:21.409Z,10.80
2024-04-19T13:21:22.854Z,11.20
2024-04-19T13:24:24.262Z,8.10
2024-04-19T13:27:25.718Z,9.50
2024-04-19T13:30:28.055Z,9.00
2024-04-19T13:33:29.474Z,14.90
2024-04-19T13:36:30.925Z,10.00
2024-04-19T13:39:32.563Z,9.10
2024-04-19T13:42:34.041Z,10.70
2024-04-19T13:45:35.676Z,12.10
2024-04-19T13:48:37.307Z,10.90
2024-04-19T13:51:39.036Z,11.70
2024-04-19T13:54:40.517Z,8.60
2024-04-19T13:57:42.038Z,6.70
2024-04-19T14:00:43.727Z,6.10
2024-04-19T14:03:45.749Z,9.30
2024-04-19T14:06:47.323Z,10.20
2024-04-19T14:09:48.752Z,8.10
2024-04-19T14:12:50.971Z,9.90
2024-04-19T14:15:52.406Z,9.70
2024-04-19T14:18:55.231Z,11.30
2024-04-19T14:21:56.954Z,7.70
2024-04-19T14:24:58.428Z,9.80
2024-04-19T14:27:59.901Z,12.40
2024-04-19T14:31:01.507Z,11.60
2024-04-19T14:34:02.975Z,8.30
2024-04-19T14:37:04.745Z,9.90
2024-04-19T14:40:06.873Z,9.70
2024-04-19T14:43:08.395Z,9.90
2024-04-19T14:46:09.855Z,7.20
2024-04-19T14:49:11.463Z,14.40
2024-04-19T14:52:13.533Z,7.60
2024-04-19T14:55:15.208Z,9.10
2024-04-19T14:58:16.581Z,7.50
2024-04-19T15:01:18.250Z,11.00
2024-04-19T15:04:19.903Z,10.10
2024-04-19T15:07:21.545Z,12.70
2024-04-19T15:10:22.903Z,11.10
2024-04-19T15:13:24.306Z,7.50
2024-04-19T15:16:25.706Z,7.50
2024-04-19T15:19:27.222Z,10.10
2024-04-19T15:22:28.625Z,9.10
2024-04-19T15:25:31.533Z,10.80
2024-04-19T15:28:34.946Z,10.50
2024-04-19T15:31:37.494Z,8.40
2024-04-19T15:34:47.120Z,6.90
2024-04-19T15:37:50.192Z,13.10
2024-04-19T15:40:51.568Z,9.20
2024-04-19T15:43:52.970Z,9.10
2024-04-19T15:46:54.407Z,10.20
2024-04-19T15:49:55.815Z,11.70
2024-04-19T15:52:57.226Z,8.30
2024-04-19T15:55:58.758Z,11.10
2024-04-19T15:59:00.123Z,8.00
2024-04-19T16:02:01.573Z,9.60
2024-04-19T16:05:02.998Z,11.70
2024-04-19T16:08:04.582Z,10.80
2024-04-19T16:11:06.277Z,13.80
2024-04-19T16:14:07.897Z,15.60
2024-04-19T16:17:09.242Z,12.40
2024-04-19T16:23:14.519Z,12.90
2024-04-19T16:29:17.989Z,9.20
2024-04-19T16:32:19.427Z,11.60
2024-04-19T16:35:20.807Z,16.40
2024-04-19T16:41:23.606Z,12.30
2024-04-19T16:47:26.700Z,12.30
2024-04-19T16:50:28.746Z,10.50
2024-04-19T16:53:30.153Z,10.20
2024-04-19T16:59:32.800Z,15.40
2024-04-19T17:02:34.540Z,15.60
2024-04-19T17:05:36.717Z,17.90
2024-04-19T17:08:38.481Z,19.20
2024-04-19T17:11:39.880Z,15.60
2024-04-19T17:17:48.894Z,13.10
2024-04-19T17:20:50.308Z,17.30
2024-04-19T17:26:53.039Z,16.60
2024-04-19T17:29:54.453Z,16.30
2024-04-19T17:35:57.272Z,10.30
2024-04-19T17:41:59.971Z,18.00
2024-04-19T17:45:01.534Z,14.30
2024-04-19T17:51:04.942Z,13.70
2024-04-19T17:54:06.379Z,16.10
2024-04-19T17:57:07.782Z,11.80
2024-04-19T18:03:10.890Z,15.70
2024-04-19T18:06:12.367Z,14.70
2024-04-19T18:12:15.390Z,16.20
2024-04-19T18:15:16.801Z,14.50
2024-04-19T18:18:18.246Z,15.20
2024-04-19T18:21:19.677Z,16.70
2024-04-19T18:24:21.287Z,15.10
2024-04-19T18:27:22.857Z,17.40
2024-04-19T18:33:26.475Z,14.80
2024-04-19T18:36:28.014Z,19.60
2024-04-19T18:42:30.929Z,15.40
2024-04-19T18:48:33.956Z,15.50
2024-04-19T18:54:36.948Z,16.90
2024-04-19T19:00:39.854Z,19.20
2024-04-19T19:03:42.007Z,17.20
2024-04-19T19:06:43.471Z,16.40
2024-04-19T19:09:45.493Z,19.20
2024-04-19T19:12:46.909Z,16.30
2024-04-19T19:15:58.477Z,17.90
2024-04-19T19:19:00.271Z,19.40
2024-04-19T19:25:03.273Z,16.80
2024-04-19T19:31:06.408Z,13.60
2024-04-19T19:37:09.403Z,23.00
2024-04-19T19:43:14.462Z,20.30
2024-04-19T19:46:16.082Z,20.00
2024-04-19T19:49:23.336Z,20.10
2024-04-19T19:52:24.777Z,20.20
2024-04-19T19:55:26.203Z,20.30
2024-04-19T19:58:27.629Z,19.20
2024-04-19T20:01:29.326Z,20.40
2024-04-19T20:07:32.349Z,17.00
2024-04-19T20:10:33.705Z,17.70
2024-04-19T20:16:36.804Z,19.90
2024-04-19T20:19:38.281Z,19.30
2024-04-19T20:22:39.725Z,21.20
2024-04-19T20:25:42.663Z,20.40
2024-04-19T20:28:44.078Z,19.20
2024-04-19T20:31:45.497Z,20.40
2024-04-19T20:34:46.867Z,19.60
2024-04-19T20:37:48.387Z,20.10
2024-04-19T20:40:49.757Z,17.40
2024-04-19T20:43:51.292Z,19.00
2024-04-19T20:49:54.029Z,18.20
2024-04-19T20:52:55.346Z,18.60
2024-04-19T20:55:56.717Z,15.10
2024-04-19T20:58:58.199Z,17.90
2024-04-19T21:01:59.683Z,15.30
2024-04-19T21:08:02.451Z,19.80
2024-04-19T21:11:04.196Z,16.80
2024-04-19T21:14:07.930Z,16.90
2024-04-19T21:17:10.565Z,18.20
2024-04-19T21:20:11.914Z,16.80
2024-04-19T21:23:13.586Z,16.80
2024-04-19T21:26:15.124Z,15.70
2024-04-19T21:29:16.557Z,15.20
2024-04-19T21:32:17.948Z,12.90
2024-04-19T21:35:19.488Z,14.60
2024-04-19T21:41:22.276Z,13.40
2024-04-19T21:44:23.618Z,12.80
2024-04-19T21:47:25.039Z,11.60
2024-04-19T21:50:26.429Z,11.40
2024-04-19T21:53:27.967Z,14.10
2024-04-19T21:59:30.883Z,16.10
2024-04-19T22:02:32.277Z,14.30
2024-04-19T22:05:33.759Z,15.10
2024-04-19T22:11:36.488Z,14.90
2024-04-19T22:14:38.069Z,8.30
2024-04-19T22:20:40.825Z,9.60
2024-04-19T22:23:42.728Z,9.80
2024-04-19T22:26:44.353Z,10.90
2024-04-19T22:29:46.068Z,12.60
2024-04-19T22:32:47.555Z,10.10
2024-04-19T22:38:50.325Z,10.20
2024-04-19T22:41:51.769Z,10.90
2024-04-19T22:44:53.203Z,11.10
2024-04-19T22:50:55.993Z,11.00
2024-04-19T22:53:57.348Z,8.70
2024-04-19T22:56:58.860Z,9.00
2024-04-19T23:03:01.868Z,11.30
2024-04-19T23:09:08.556Z,11.00
2024-04-19T23:12:10.973Z,9.10
2024-04-19T23:15:12.683Z,11.50
2024-04-19T23:18:14.256Z,7.50
2024-04-19T23:24:17.031Z,7.30
2024-04-19T23:27:18.476Z,9.50
2024-04-19T23:30:19.962Z,10.50
2024-04-19T23:36:23.455Z,11.60
2024-04-19T23:39:24.897Z,7.40
2024-04-19T23:42:28.527Z,6.80
2024-04-19T23:45:31.769Z,7.90
2024-04-19T23:48:33.367Z,6.20
